^^
Station Historical Data
 
Daily Summary for January 19, 2018 Units:  Both    English   Metric
« Previous Day
Next Day »
Daily Weekly Monthly Yearly Custom
  Current: High: Low: Average:
Temperature: 51.0 °F /  10.6 °C 74.0 °F /  23.3 °C 41.1 °F /  5.1 °C 56.1 °F /  13.4 °C
Dew Point: 32.0 °F /  0 °C 37.2 °F /  2.9 °C 31.0 °F /  -0.6 °C 33 °F /  0.6 °C
Humidity: 48% 72% 21% 45%
Wind Speed: 0.0mph /  0km/h 4.5mph /  7.2km/h - 0mph /  0km/h
Wind Gust: 0.0mph /  0km/h 9.0mph /  14.5km/h - -
WindCalm - - West
Pressure: 29.80 in /  1009 hPa 30.03 in /  1016.8 hPa 29.80 in /  1009 hPa -
Precipitation: 0.00 in /  0 mm      
Historical Graphs
 
 
Tabular Data for January 19, 2018
Time Temperature Dew Point Pressure Wind Wind Speed Wind Gust Humidity Rainfall Rate (Hourly) solar Conditions
00:00 49.5 °F /  9.7 °C 33.5 °F /  0.8 °C 30.01in /  1016.1hPa Calm     54% 0.00in /  0mm WeatherDisplay:10.37 W/m2 CLR
00:05 49.3 °F /  9.6 °C 33.3 °F /  0.7 °C 30.01in /  1016.1hPa Calm     54% 0.00in /  0mm WeatherDisplay:10.37 W/m2 CLR
00:10 49.2 °F /  9.6 °C 33.3 °F /  0.7 °C 30.01in /  1016.1hPa Calm     54% 0.00in /  0mm WeatherDisplay:10.37 W/m2 CLR
00:15 49.1 °F /  9.5 °C 33.2 °F /  0.7 °C 30.00in /  1015.8hPa Calm     54% 0.00in /  0mm WeatherDisplay:10.37 W/m2 CLR
00:20 48.9 °F /  9.4 °C 33.4 °F /  0.8 °C 30.00in /  1015.8hPa Calm     55% 0.00in /  0mm WeatherDisplay:10.37 W/m2 CLR
00:25 48.8 °F /  9.3 °C 33.3 °F /  0.7 °C 30.00in /  1015.8hPa Calm     55% 0.00in /  0mm WeatherDisplay:10.37 W/m2 CLR
00:30 48.7 °F /  9.3 °C 33.2 °F /  0.7 °C 29.99in /  1015.5hPa Calm     55% 0.00in /  0mm WeatherDisplay:10.37 W/m2 CLR
00:35 48.5 °F /  9.2 °C 33.1 °F /  0.6 °C 29.99in /  1015.5hPa Calm     55% 0.00in /  0mm WeatherDisplay:10.37 W/m2 CLR
00:41 48.4 °F /  9.1 °C 33.0 °F /  0.6 °C 30.00in /  1015.8hPa Calm     55% 0.00in /  0mm WeatherDisplay:10.37 W/m2 CLR
00:46 48.3 °F /  9.1 °C 32.9 °F /  0.5 °C 30.00in /  1015.8hPa Calm     55% 0.00in /  0mm WeatherDisplay:10.37 W/m2 CLR
00:51 48.2 °F /  9 °C 32.8 °F /  0.4 °C 30.00in /  1015.8hPa Calm     55% 0.00in /  0mm WeatherDisplay:10.37 W/m2 CLR
00:56 48.1 °F /  8.9 °C 32.7 °F /  0.4 °C 30.00in /  1015.8hPa Calm     55% 0.00in /  0mm WeatherDisplay:10.37 W/m2 CLR
01:01 48.0 °F /  8.9 °C 32.6 °F /  0.3 °C 30.00in /  1015.8hPa Calm     55% 0.00in /  0mm WeatherDisplay:10.37 W/m2 CLR
01:06 47.9 °F /  8.8 °C 32.9 °F /  0.5 °C 30.00in /  1015.8hPa Calm     56% 0.00in /  0mm WeatherDisplay:10.37 W/m2 CLR
01:11 47.8 °F /  8.8 °C 32.9 °F /  0.5 °C 29.99in /  1015.5hPa Calm     56% 0.00in /  0mm WeatherDisplay:10.37 W/m2 CLR
01:16 47.7 °F /  8.7 °C 32.8 °F /  0.4 °C 29.99in /  1015.5hPa Calm     56% 0.00in /  0mm WeatherDisplay:10.37 W/m2 CLR
01:21 47.6 °F /  8.7 °C 32.7 °F /  0.4 °C 29.99in /  1015.5hPa Calm     56% 0.00in /  0mm WeatherDisplay:10.37 W/m2 CLR
01:26 47.5 °F /  8.6 °C 32.6 °F /  0.3 °C 29.98in /  1015.1hPa Calm     56% 0.00in /  0mm WeatherDisplay:10.37 W/m2 CLR
01:31 47.5 °F /  8.6 °C 33.0 °F /  0.6 °C 29.98in /  1015.1hPa Calm     57% 0.00in /  0mm WeatherDisplay:10.37 W/m2 CLR
01:36 47.4 °F /  8.6 °C 32.9 °F /  0.5 °C 29.98in /  1015.1hPa Calm     57% 0.00in /  0mm WeatherDisplay:10.37 W/m2 CLR
01:41 47.4 °F /  8.6 °C 32.9 °F /  0.5 °C 29.98in /  1015.1hPa Calm     57% 0.00in /  0mm WeatherDisplay:10.37 W/m2 CLR
01:46 47.3 °F /  8.5 °C 32.8 °F /  0.4 °C 29.98in /  1015.1hPa Calm     57% 0.00in /  0mm WeatherDisplay:10.37 W/m2 CLR
01:52 47.2 °F /  8.4 °C 32.7 °F /  0.4 °C 29.98in /  1015.1hPa Calm     57% 0.00in /  0mm WeatherDisplay:10.37 W/m2 CLR
01:57 47.0 °F /  8.3 °C 32.5 °F /  0.3 °C 29.98in /  1015.1hPa Calm     57% 0.00in /  0mm WeatherDisplay:10.37 W/m2 CLR
02:02 46.9 °F /  8.3 °C 32.4 °F /  0.2 °C 29.98in /  1015.1hPa Calm     57% 0.00in /  0mm WeatherDisplay:10.37 W/m2 CLR
02:07 46.8 °F /  8.2 °C 32.8 °F /  0.4 °C 29.98in /  1015.1hPa Calm     58% 0.00in /  0mm WeatherDisplay:10.37 W/m2 CLR
02:12 46.7 °F /  8.2 °C 32.7 °F /  0.4 °C 29.98in /  1015.1hPa Calm     58% 0.00in /  0mm WeatherDisplay:10.37 W/m2 CLR
02:17 46.5 °F /  8.1 °C 32.5 °F /  0.3 °C 29.98in /  1015.1hPa Calm     58% 0.00in /  0mm WeatherDisplay:10.37 W/m2 CLR
02:22 46.3 °F /  7.9 °C 32.3 °F /  0.2 °C 29.98in /  1015.1hPa Calm     58% 0.00in /  0mm WeatherDisplay:10.37 W/m2 CLR
02:27 46.2 °F /  7.9 °C 32.2 °F /  0.1 °C 29.99in /  1015.5hPa Calm     58% 0.00in /  0mm WeatherDisplay:10.37 W/m2 CLR
02:32 46.0 °F /  7.8 °C 32.0 °F /  0 °C 29.99in /  1015.5hPa Calm     58% 0.00in /  0mm WeatherDisplay:10.37 W/m2 CLR
02:37 45.9 °F /  7.7 °C 31.9 °F /  -0.1 °C 29.99in /  1015.5hPa Calm     58% 0.00in /  0mm WeatherDisplay:10.37 W/m2 CLR
02:42 45.8 °F /  7.7 °C 31.9 °F /  -0.1 °C 29.99in /  1015.5hPa Calm     58% 0.00in /  0mm WeatherDisplay:10.37 W/m2 CLR
02:47 45.6 °F /  7.6 °C 32.1 °F /  0.1 °C 29.99in /  1015.5hPa Calm     59% 0.00in /  0mm WeatherDisplay:10.37 W/m2 CLR
02:53 45.5 °F /  7.5 °C 32.0 °F /  0 °C 29.99in /  1015.5hPa Calm     59% 0.00in /  0mm WeatherDisplay:10.37 W/m2 CLR
02:58 45.3 °F /  7.4 °C 31.8 °F /  -0.1 °C 29.98in /  1015.1hPa Calm     59% 0.00in /  0mm WeatherDisplay:10.37 W/m2 CLR
03:03 45.1 °F /  7.3 °C 31.6 °F /  -0.2 °C 29.98in /  1015.1hPa Calm     59% 0.00in /  0mm WeatherDisplay:10.37 W/m2 CLR
03:08 45.0 °F /  7.2 °C 31.9 °F /  -0.1 °C 29.98in /  1015.1hPa Calm     60% 0.00in /  0mm WeatherDisplay:10.37 W/m2 CLR
03:13 44.9 °F /  7.2 °C 31.8 °F /  -0.1 °C 29.98in /  1015.1hPa Calm     60% 0.00in /  0mm WeatherDisplay:10.37 W/m2 CLR
03:18 44.7 °F /  7.1 °C 31.7 °F /  -0.2 °C 29.98in /  1015.1hPa Calm     60% 0.00in /  0mm WeatherDisplay:10.37 W/m2 CLR
03:23 44.6 °F /  7 °C 32.0 °F /  0 °C 29.98in /  1015.1hPa Calm     61% 0.00in /  0mm WeatherDisplay:10.37 W/m2 CLR
03:28 44.4 °F /  6.9 °C 31.8 °F /  -0.1 °C 29.98in /  1015.1hPa Calm     61% 0.00in /  0mm WeatherDisplay:10.37 W/m2 CLR
03:33 44.3 °F /  6.8 °C 31.7 °F /  -0.2 °C 29.98in /  1015.1hPa Calm     61% 0.00in /  0mm WeatherDisplay:10.37 W/m2 CLR
03:38 44.2 °F /  6.8 °C 31.6 °F /  -0.2 °C 29.98in /  1015.1hPa Calm     61% 0.00in /  0mm WeatherDisplay:10.37 W/m2 CLR
03:43 44.2 °F /  6.8 °C 32.0 °F /  0 °C 29.99in /  1015.5hPa Calm     62% 0.00in /  0mm WeatherDisplay:10.37 W/m2 CLR
03:48 44.1 °F /  6.7 °C 31.9 °F /  -0.1 °C 29.99in /  1015.5hPa Calm     62% 0.00in /  0mm WeatherDisplay:10.37 W/m2 CLR
03:53 44.0 °F /  6.7 °C 31.8 °F /  -0.1 °C 29.99in /  1015.5hPa Calm     62% 0.00in /  0mm WeatherDisplay:10.37 W/m2 CLR
03:58 44.0 °F /  6.7 °C 31.8 °F /  -0.1 °C 29.99in /  1015.5hPa Calm     62% 0.00in /  0mm WeatherDisplay:10.37 W/m2 CLR
04:04 44.0 °F /  6.7 °C 32.2 °F /  0.1 °C 29.99in /  1015.5hPa Calm     63% 0.00in /  0mm WeatherDisplay:10.37 W/m2 CLR
04:09 44.0 °F /  6.7 °C 32.2 °F /  0.1 °C 29.99in /  1015.5hPa Calm     63% 0.00in /  0mm WeatherDisplay:10.37 W/m2 CLR
04:14 44.0 °F /  6.7 °C 32.2 °F /  0.1 °C 29.98in /  1015.1hPa Calm     63% 0.00in /  0mm WeatherDisplay:10.37 W/m2 CLR
04:19 44.0 °F /  6.7 °C 32.2 °F /  0.1 °C 29.98in /  1015.1hPa Calm     63% 0.00in /  0mm WeatherDisplay:10.37 W/m2 CLR
04:24 44.0 °F /  6.7 °C 32.2 °F /  0.1 °C 29.98in /  1015.1hPa Calm     63% 0.00in /  0mm WeatherDisplay:10.37 W/m2 CLR
04:29 44.0 °F /  6.7 °C 32.2 °F /  0.1 °C 29.97in /  1014.8hPa Calm     63% 0.00in /  0mm WeatherDisplay:10.37 W/m2 CLR
04:34 44.0 °F /  6.7 °C 32.2 °F /  0.1 °C 29.97in /  1014.8hPa Calm     63% 0.00in /  0mm WeatherDisplay:10.37 W/m2 CLR
04:39 44.0 °F /  6.7 °C 32.2 °F /  0.1 °C 29.97in /  1014.8hPa Calm     63% 0.00in /  0mm WeatherDisplay:10.37 W/m2 CLR
05:20 43.6 °F /  6.4 °C 32.2 °F /  0.1 °C 29.97in /  1014.8hPa Calm     64% 0.00in /  0mm WeatherDisplay:10.37 W/m2 CLR
05:25 43.4 °F /  6.3 °C 31.6 °F /  -0.2 °C 29.97in /  1014.8hPa Calm     63% 0.00in /  0mm WeatherDisplay:10.37 W/m2 CLR
05:30 43.4 °F /  6.3 °C 31.6 °F /  -0.2 °C 29.98in /  1015.1hPa Calm     63% 0.00in /  0mm WeatherDisplay:10.37 W/m2 CLR
05:35 43.3 °F /  6.3 °C 31.9 °F /  -0.1 °C 29.98in /  1015.1hPa Calm     64% 0.00in /  0mm WeatherDisplay:10.37 W/m2 CLR
05:40 43.2 °F /  6.2 °C 31.8 °F /  -0.1 °C 29.98in /  1015.1hPa Calm     64% 0.00in /  0mm WeatherDisplay:10.37 W/m2 CLR
05:45 43.1 °F /  6.2 °C 31.7 °F /  -0.2 °C 29.98in /  1015.1hPa Calm     64% 0.00in /  0mm WeatherDisplay:10.37 W/m2 CLR
05:49 42.9 °F /  6.1 °C 31.6 °F /  -0.2 °C 29.98in /  1015.1hPa Calm     64% 0.00in /  0mm WeatherDisplay:10.37 W/m2 CLR
05:55 42.8 °F /  6 °C 31.5 °F /  -0.3 °C 29.98in /  1015.1hPa Calm     64% 0.00in /  0mm WeatherDisplay:10.37 W/m2 CLR
06:00 42.7 °F /  5.9 °C 31.4 °F /  -0.3 °C 29.98in /  1015.1hPa Calm     64% 0.00in /  0mm WeatherDisplay:10.37 W/m2 CLR
06:05 42.6 °F /  5.9 °C 31.2 °F /  -0.4 °C 29.98in /  1015.1hPa Calm     64% 0.00in /  0mm WeatherDisplay:10.37 W/m2 CLR
06:10 42.5 °F /  5.8 °C 31.6 °F /  -0.2 °C 29.98in /  1015.1hPa Calm     65% 0.00in /  0mm WeatherDisplay:10.37 W/m2 CLR
06:15 42.4 °F /  5.8 °C 31.5 °F /  -0.3 °C 29.99in /  1015.5hPa Calm     65% 0.00in /  0mm WeatherDisplay:10.37 W/m2 CLR
06:20 42.3 °F /  5.7 °C 31.4 °F /  -0.3 °C 29.99in /  1015.5hPa Calm     65% 0.00in /  0mm WeatherDisplay:10.37 W/m2 CLR
06:25 42.3 °F /  5.7 °C 31.3 °F /  -0.4 °C 29.99in /  1015.5hPa Calm     65% 0.00in /  0mm WeatherDisplay:10.37 W/m2 CLR
06:30 42.2 °F /  5.7 °C 31.3 °F /  -0.4 °C 29.99in /  1015.5hPa Calm     65% 0.00in /  0mm WeatherDisplay:10.37 W/m2 CLR
06:35 42.1 °F /  5.6 °C 31.2 °F /  -0.4 °C 29.99in /  1015.5hPa Calm     65% 0.00in /  0mm WeatherDisplay:10.37 W/m2 CLR
06:40 42.0 °F /  5.6 °C 31.1 °F /  -0.5 °C 29.99in /  1015.5hPa Calm     65% 0.00in /  0mm WeatherDisplay:10.37 W/m2 CLR
06:45 42.0 °F /  5.6 °C 31.5 °F /  -0.3 °C 29.99in /  1015.5hPa Calm     66% 0.00in /  0mm WeatherDisplay:10.37 W/m2 CLR
06:50 41.9 °F /  5.5 °C 31.4 °F /  -0.3 °C 29.99in /  1015.5hPa Calm     66% 0.00in /  0mm WeatherDisplay:10.37 W/m2 CLR
06:55 41.8 °F /  5.4 °C 31.3 °F /  -0.4 °C 29.99in /  1015.5hPa Calm     66% 0.00in /  0mm WeatherDisplay:10.37 W/m2 CLR
07:00 41.7 °F /  5.4 °C 31.2 °F /  -0.4 °C 29.99in /  1015.5hPa Calm     66% 0.00in /  0mm WeatherDisplay:10.37 W/m2 CLR
07:05 41.7 °F /  5.4 °C 31.2 °F /  -0.4 °C 29.99in /  1015.5hPa Calm     66% 0.00in /  0mm WeatherDisplay:10.37 W/m2 CLR
07:10 41.7 °F /  5.4 °C 31.2 °F /  -0.4 °C 29.99in /  1015.5hPa Calm     66% 0.00in /  0mm WeatherDisplay:10.37 W/m2 CLR
07:15 41.7 °F /  5.4 °C 31.5 °F /  -0.3 °C 30.00in /  1015.8hPa Calm     67% 0.00in /  0mm WeatherDisplay:10.37 W/m2 CLR
07:20 41.7 °F /  5.4 °C 31.5 °F /  -0.3 °C 30.00in /  1015.8hPa Calm     67% 0.00in /  0mm WeatherDisplay:10.37 W/m2 CLR
07:25 41.7 °F /  5.4 °C 31.5 °F /  -0.3 °C 30.00in /  1015.8hPa Calm     67% 0.00in /  0mm WeatherDisplay:10.37 W/m2 CLR
07:29 41.7 °F /  5.4 °C 31.5 °F /  -0.3 °C 30.00in /  1015.8hPa Calm     67% 0.00in /  0mm WeatherDisplay:10.37 W/m2 CLR
07:35 41.7 °F /  5.4 °C 31.5 °F /  -0.3 °C 30.00in /  1015.8hPa Calm     67% 0.00in /  0mm WeatherDisplay:10.37 W/m2 CLR
07:39 41.7 °F /  5.4 °C 31.5 °F /  -0.3 °C 30.00in /  1015.8hPa Calm     67% 0.00in /  0mm WeatherDisplay:10.37 W/m2 CLR
07:45 41.6 °F /  5.3 °C 31.5 °F /  -0.3 °C 30.01in /  1016.1hPa Calm     67% 0.00in /  0mm WeatherDisplay:10.37 W/m2 CLR
07:50 41.6 °F /  5.3 °C 31.4 °F /  -0.3 °C 30.01in /  1016.1hPa Calm     67% 0.00in /  0mm WeatherDisplay:10.37 W/m2 CLR
07:54 41.6 °F /  5.3 °C 31.4 °F /  -0.3 °C 30.01in /  1016.1hPa Calm     67% 0.00in /  0mm WeatherDisplay:10.37 W/m2 CLR
08:00 41.5 °F /  5.3 °C 31.4 °F /  -0.3 °C 30.01in /  1016.1hPa Calm     67% 0.00in /  0mm WeatherDisplay:10.37 W/m2 CLR
08:05 41.5 °F /  5.3 °C 31.4 °F /  -0.3 °C 30.01in /  1016.1hPa Calm     67% 0.00in /  0mm WeatherDisplay:10.37 W/m2 CLR
08:10 41.3 °F /  5.2 °C 31.2 °F /  -0.4 °C 30.01in /  1016.1hPa Calm     67% 0.00in /  0mm WeatherDisplay:10.37 W/m2 CLR
08:15 41.2 °F /  5.1 °C 31.1 °F /  -0.5 °C 30.02in /  1016.5hPa Calm     67% 0.00in /  0mm WeatherDisplay:10.37 W/m2 CLR
08:20 41.2 °F /  5.1 °C 31.0 °F /  -0.6 °C 30.02in /  1016.5hPa Calm     67% 0.00in /  0mm WeatherDisplay:10.37 W/m2 CLR
08:25 41.1 °F /  5.1 °C 31.0 °F /  -0.6 °C 30.02in /  1016.5hPa Calm     67% 0.00in /  0mm WeatherDisplay:10.37 W/m2 CLR
08:30 41.1 °F /  5.1 °C 31.4 °F /  -0.3 °C 30.02in /  1016.5hPa Calm     68% 0.00in /  0mm WeatherDisplay:10.37 W/m2 CLR
08:35 41.3 °F /  5.2 °C 31.5 °F /  -0.3 °C 30.02in /  1016.5hPa Calm     68% 0.00in /  0mm WeatherDisplay:10.37 W/m2 CLR
08:40 41.4 °F /  5.2 °C 32.0 °F /  0 °C 30.02in /  1016.5hPa Calm     69% 0.00in /  0mm WeatherDisplay:10.37 W/m2 CLR
08:45 41.5 °F /  5.3 °C 32.1 °F /  0.1 °C 30.02in /  1016.5hPa Calm     69% 0.00in /  0mm WeatherDisplay:10.37 W/m2 CLR
08:50 41.8 °F /  5.4 °C 32.7 °F /  0.4 °C 30.02in /  1016.5hPa Calm     70% 0.00in /  0mm WeatherDisplay:10.37 W/m2 CLR
08:55 42.1 °F /  5.6 °C 33.3 °F /  0.7 °C 30.02in /  1016.5hPa Calm     71% 0.00in /  0mm WeatherDisplay:10.37 W/m2 CLR
09:00 42.5 °F /  5.8 °C 33.7 °F /  0.9 °C 30.02in /  1016.5hPa Calm     71% 0.00in /  0mm WeatherDisplay:10.37 W/m2 CLR
09:05 43.0 °F /  6.1 °C 34.2 °F /  1.2 °C 30.02in /  1016.5hPa Calm     71% 0.00in /  0mm WeatherDisplay:10.37 W/m2 CLR
09:10 43.4 °F /  6.3 °C 35.0 °F /  1.7 °C 30.02in /  1016.5hPa Calm     72% 0.00in /  0mm WeatherDisplay:10.37 W/m2 CLR
09:15 44.0 °F /  6.7 °C 35.5 °F /  1.9 °C 30.03in /  1016.8hPa Calm     72% 0.00in /  0mm WeatherDisplay:10.37 W/m2 CLR
09:20 44.5 °F /  6.9 °C 35.7 °F /  2.1 °C 30.03in /  1016.8hPa Calm     71% 0.00in /  0mm WeatherDisplay:10.37 W/m2 CLR
09:25 45.0 °F /  7.2 °C 36.2 °F /  2.3 °C 30.03in /  1016.8hPa Calm     71% 0.00in /  0mm WeatherDisplay:10.37 W/m2 CLR
09:30 45.5 °F /  7.5 °C 36.6 °F /  2.6 °C 30.03in /  1016.8hPa Calm     71% 0.00in /  0mm WeatherDisplay:10.37 W/m2 CLR
09:35 46.0 °F /  7.8 °C 36.8 °F /  2.7 °C 30.03in /  1016.8hPa Calm     70% 0.00in /  0mm WeatherDisplay:10.37 W/m2 CLR
09:40 46.6 °F /  8.1 °C 37.0 °F /  2.8 °C 30.03in /  1016.8hPa Calm     69% 0.00in /  0mm WeatherDisplay:10.37 W/m2 CLR
09:45 47.2 °F /  8.4 °C 37.2 °F /  2.9 °C 30.03in /  1016.8hPa Calm     68% 0.00in /  0mm WeatherDisplay:10.37 W/m2 CLR
09:50 47.9 °F /  8.8 °C 37.1 °F /  2.8 °C 30.03in /  1016.8hPa Calm     66% 0.00in /  0mm WeatherDisplay:10.37 W/m2 CLR
09:55 48.6 °F /  9.2 °C 37.0 °F /  2.8 °C 30.03in /  1016.8hPa Calm     64% 0.00in /  0mm WeatherDisplay:10.37 W/m2 CLR
10:00 49.2 °F /  9.6 °C 36.7 °F /  2.6 °C 30.02in /  1016.5hPa Calm     62% 0.00in /  0mm WeatherDisplay:10.37 W/m2 CLR
10:05 49.8 °F /  9.9 °C 36.4 °F /  2.4 °C 30.02in /  1016.5hPa Calm     60% 0.00in /  0mm WeatherDisplay:10.37 W/m2 CLR
10:10 50.5 °F /  10.3 °C 36.3 °F /  2.4 °C 30.02in /  1016.5hPa Calm     58% 0.00in /  0mm WeatherDisplay:10.37 W/m2 CLR
10:15 51.2 °F /  10.7 °C 35.5 °F /  1.9 °C 30.02in /  1016.5hPa Calm     55% 0.00in /  0mm WeatherDisplay:10.37 W/m2 CLR
10:20 51.8 °F /  11 °C 35.2 °F /  1.8 °C 30.02in /  1016.5hPa Calm     53% 0.00in /  0mm WeatherDisplay:10.37 W/m2 CLR
10:25 52.5 °F /  11.4 °C 35.4 °F /  1.9 °C 30.02in /  1016.5hPa Calm     52% 0.00in /  0mm WeatherDisplay:10.37 W/m2 CLR
10:30 53.1 °F /  11.7 °C 35.0 °F /  1.7 °C 30.02in /  1016.5hPa Calm     50% 0.00in /  0mm WeatherDisplay:10.37 W/m2 CLR
10:34 53.9 °F /  12.2 °C 35.2 °F /  1.8 °C 30.02in /  1016.5hPa Calm     49% 0.00in /  0mm WeatherDisplay:10.37 W/m2 CLR
10:40 54.5 °F /  12.5 °C 35.2 °F /  1.8 °C 30.02in /  1016.5hPa Calm     48% 0.00in /  0mm WeatherDisplay:10.37 W/m2 CLR
10:44 55.2 °F /  12.9 °C 35.3 °F /  1.8 °C 30.02in /  1016.5hPa Calm     47% 0.00in /  0mm WeatherDisplay:10.37 W/m2 CLR
10:50 55.8 °F /  13.2 °C 35.3 °F /  1.8 °C 30.02in /  1016.5hPa Calm     46% 0.00in /  0mm WeatherDisplay:10.37 W/m2 CLR
10:55 56.4 °F /  13.6 °C 35.3 °F /  1.8 °C 30.02in /  1016.5hPa Calm     45% 0.00in /  0mm WeatherDisplay:10.37 W/m2 CLR
11:00 57.0 °F /  13.9 °C 35.2 °F /  1.8 °C 30.01in /  1016.1hPa Calm     44% 0.00in /  0mm WeatherDisplay:10.37 W/m2 CLR
11:05 57.5 °F /  14.2 °C 35.2 °F /  1.8 °C 30.01in /  1016.1hPa Calm     43% 0.00in /  0mm WeatherDisplay:10.37 W/m2 CLR
11:10 58.0 °F /  14.4 °C 35.0 °F /  1.7 °C 30.01in /  1016.1hPa Calm   1.0mph /  1.6km/h 42% 0.00in /  0mm WeatherDisplay:10.37 W/m2 CLR
11:15 58.5 °F /  14.7 °C 35.5 °F /  1.9 °C 30.00in /  1015.8hPa Calm   1.0mph /  1.6km/h 42% 0.00in /  0mm WeatherDisplay:10.37 W/m2 CLR
11:20 59.0 °F /  15 °C 35.3 °F /  1.8 °C 30.00in /  1015.8hPa Calm     41% 0.00in /  0mm WeatherDisplay:10.37 W/m2 CLR
11:25 59.6 °F /  15.3 °C 34.6 °F /  1.4 °C 30.00in /  1015.8hPa Calm   4.0mph /  6.4km/h 39% 0.00in /  0mm WeatherDisplay:10.37 W/m2 CLR
11:30 60.3 °F /  15.7 °C 35.2 °F /  1.8 °C 29.99in /  1015.5hPa Calm   1.0mph /  1.6km/h 39% 0.00in /  0mm WeatherDisplay:10.37 W/m2 CLR
11:35 60.8 °F /  16 °C 35.0 °F /  1.7 °C 29.99in /  1015.5hPa Calm     38% 0.00in /  0mm WeatherDisplay:10.37 W/m2 CLR
11:40 61.4 °F /  16.3 °C 34.9 °F /  1.6 °C 29.99in /  1015.5hPa Calm     37% 0.00in /  0mm WeatherDisplay:10.37 W/m2 CLR
11:45 61.9 °F /  16.6 °C 34.6 °F /  1.4 °C 29.98in /  1015.1hPa Calm     36% 0.00in /  0mm WeatherDisplay:10.37 W/m2 CLR
11:49 62.4 °F /  16.9 °C 35.1 °F /  1.7 °C 29.98in /  1015.1hPa Calm     36% 0.00in /  0mm WeatherDisplay:10.37 W/m2 CLR
11:55 62.8 °F /  17.1 °C 34.8 °F /  1.6 °C 29.98in /  1015.1hPa Calm     35% 0.00in /  0mm WeatherDisplay:10.37 W/m2 CLR
12:00 63.3 °F /  17.4 °C 35.1 °F /  1.7 °C 29.97in /  1014.8hPa Calm     35% 0.00in /  0mm WeatherDisplay:10.37 W/m2 CLR
12:04 63.8 °F /  17.7 °C 34.9 °F /  1.6 °C 29.97in /  1014.8hPa Calm     34% 0.00in /  0mm WeatherDisplay:10.37 W/m2 CLR
12:10 64.1 °F /  17.8 °C 35.1 °F /  1.7 °C 29.97in /  1014.8hPa Calm   6.0mph /  9.7km/h 34% 0.00in /  0mm WeatherDisplay:10.37 W/m2 CLR
12:15 64.8 °F /  18.2 °C 33.4 °F /  0.8 °C 29.95in /  1014.1hPa Calm   8.0mph /  12.9km/h 31% 0.00in /  0mm WeatherDisplay:10.37 W/m2 CLR
12:20 65.4 °F /  18.6 °C 33.2 °F /  0.7 °C 29.95in /  1014.1hPa West 1.0mph /  1.6km/h 9.0mph /  14.5km/h 30% 0.00in /  0mm WeatherDisplay:10.37 W/m2 CLR
12:25 66.1 °F /  18.9 °C 33.7 °F /  0.9 °C 29.95in /  1014.1hPa Calm   9.0mph /  14.5km/h 30% 0.00in /  0mm WeatherDisplay:10.37 W/m2 CLR
12:30 66.6 °F /  19.2 °C 34.1 °F /  1.2 °C 29.94in /  1013.8hPa Calm   2.0mph /  3.2km/h 30% 0.00in /  0mm WeatherDisplay:10.37 W/m2 CLR
12:35 67.0 °F /  19.4 °C 33.7 °F /  0.9 °C 29.94in /  1013.8hPa Calm     29% 0.00in /  0mm WeatherDisplay:10.37 W/m2 CLR
12:40 67.4 °F /  19.7 °C 34.1 °F /  1.2 °C 29.94in /  1013.8hPa Calm   5.0mph /  8km/h 29% 0.00in /  0mm WeatherDisplay:10.37 W/m2 CLR
12:45 67.9 °F /  19.9 °C 33.5 °F /  0.8 °C 29.93in /  1013.4hPa West 1.0mph /  1.6km/h 9.0mph /  14.5km/h 28% 0.00in /  0mm WeatherDisplay:10.37 W/m2 CLR
12:50 68.5 °F /  20.3 °C 34.1 °F /  1.2 °C 29.93in /  1013.4hPa Calm     28% 0.00in /  0mm WeatherDisplay:10.37 W/m2 CLR
12:55 68.8 °F /  20.4 °C 33.4 °F /  0.8 °C 29.93in /  1013.4hPa West 1.0mph /  1.6km/h 5.0mph /  8km/h 27% 0.00in /  0mm WeatherDisplay:10.37 W/m2 CLR
13:00 69.2 °F /  20.7 °C 33.8 °F /  1 °C 29.91in /  1012.8hPa Calm   7.0mph /  11.3km/h 27% 0.00in /  0mm WeatherDisplay:10.37 W/m2 CLR
13:05 69.5 °F /  20.8 °C 33.1 °F /  0.6 °C 29.91in /  1012.8hPa Calm     26% 0.00in /  0mm WeatherDisplay:10.37 W/m2 CLR
13:10 69.8 °F /  21 °C 33.3 °F /  0.7 °C 29.91in /  1012.8hPa Calm     26% 0.00in /  0mm WeatherDisplay:10.37 W/m2 CLR
13:15 70.1 °F /  21.2 °C 33.6 °F /  0.9 °C 29.91in /  1012.8hPa West 1.0mph /  1.6km/h 5.0mph /  8km/h 26% 0.00in /  0mm WeatherDisplay:10.37 W/m2 CLR
13:20 70.4 °F /  21.3 °C 33.8 °F /  1 °C 29.91in /  1012.8hPa West 1.0mph /  1.6km/h 6.0mph /  9.7km/h 26% 0.00in /  0mm WeatherDisplay:10.37 W/m2 CLR
13:25 70.7 °F /  21.5 °C 33.1 °F /  0.6 °C 29.91in /  1012.8hPa Calm   9.0mph /  14.5km/h 25% 0.00in /  0mm WeatherDisplay:10.37 W/m2 CLR
13:30 71.0 °F /  21.7 °C 32.4 °F /  0.2 °C 29.89in /  1012.1hPa Calm     24% 0.00in /  0mm WeatherDisplay:10.37 W/m2 CLR
13:35 71.2 °F /  21.8 °C 32.5 °F /  0.3 °C 29.89in /  1012.1hPa Calm     24% 0.00in /  0mm WeatherDisplay:10.37 W/m2 CLR
13:40 71.4 °F /  21.9 °C 33.7 °F /  0.9 °C 29.89in /  1012.1hPa Calm   7.0mph /  11.3km/h 25% 0.00in /  0mm WeatherDisplay:10.37 W/m2 CLR
13:45 71.6 °F /  22 °C 32.9 °F /  0.5 °C 29.89in /  1012.1hPa Calm     24% 0.00in /  0mm WeatherDisplay:10.37 W/m2 CLR
13:50 71.7 °F /  22.1 °C 33.0 °F /  0.6 °C 29.89in /  1012.1hPa Calm     24% 0.00in /  0mm WeatherDisplay:10.37 W/m2 CLR
13:55 71.9 °F /  22.2 °C 33.1 °F /  0.6 °C 29.89in /  1012.1hPa Calm   1.0mph /  1.6km/h 24% 0.00in /  0mm WeatherDisplay:10.37 W/m2 CLR
14:00 72.2 °F /  22.3 °C 33.3 °F /  0.7 °C 29.88in /  1011.7hPa WNW 2.0mph /  3.2km/h 6.0mph /  9.7km/h 24% 0.00in /  0mm WeatherDisplay:10.37 W/m2 CLR
14:05 72.4 °F /  22.4 °C 33.5 °F /  0.8 °C 29.88in /  1011.7hPa Calm   8.0mph /  12.9km/h 24% 0.00in /  0mm WeatherDisplay:10.37 W/m2 CLR
14:10 72.6 °F /  22.6 °C 32.6 °F /  0.3 °C 29.88in /  1011.7hPa Calm     23% 0.00in /  0mm WeatherDisplay:10.37 W/m2 CLR
14:15 72.7 °F /  22.6 °C 32.7 °F /  0.4 °C 29.87in /  1011.4hPa Calm     23% 0.00in /  0mm WeatherDisplay:10.37 W/m2 CLR
14:20 72.8 °F /  22.7 °C 32.8 °F /  0.4 °C 29.87in /  1011.4hPa Calm   7.0mph /  11.3km/h 23% 0.00in /  0mm WeatherDisplay:10.37 W/m2 CLR
14:25 73.0 °F /  22.8 °C 33.0 °F /  0.6 °C 29.87in /  1011.4hPa WNW 0.8mph /  1.3km/h 8.0mph /  12.9km/h 23% 0.00in /  0mm WeatherDisplay:10.37 W/m2 CLR
14:30 73.1 °F /  22.8 °C 33.1 °F /  0.6 °C 29.86in /  1011.1hPa WNW 4.5mph /  7.2km/h 5.0mph /  8km/h 23% 0.00in /  0mm WeatherDisplay:10.37 W/m2 CLR
14:35 73.3 °F /  22.9 °C 32.1 °F /  0.1 °C 29.86in /  1011.1hPa Calm   7.0mph /  11.3km/h 22% 0.00in /  0mm WeatherDisplay:10.37 W/m2 CLR
14:40 73.4 °F /  23 °C 32.2 °F /  0.1 °C 29.86in /  1011.1hPa Calm     22% 0.00in /  0mm WeatherDisplay:10.37 W/m2 CLR
14:45 73.5 °F /  23.1 °C 32.3 °F /  0.2 °C 29.86in /  1011.1hPa Calm   6.0mph /  9.7km/h 22% 0.00in /  0mm WeatherDisplay:10.37 W/m2 CLR
14:50 73.6 °F /  23.1 °C 32.4 °F /  0.2 °C 29.86in /  1011.1hPa Calm   1.0mph /  1.6km/h 22% 0.00in /  0mm WeatherDisplay:10.37 W/m2 CLR
14:55 73.6 °F /  23.1 °C 32.4 °F /  0.2 °C 29.86in /  1011.1hPa Calm   5.8mph /  9.3km/h 22% 0.00in /  0mm WeatherDisplay:10.37 W/m2 CLR
15:00 73.7 °F /  23.2 °C 32.5 °F /  0.3 °C 29.85in /  1010.7hPa Calm     22% 0.00in /  0mm WeatherDisplay:10.37 W/m2 CLR
15:05 73.7 °F /  23.2 °C 32.5 °F /  0.3 °C 29.85in /  1010.7hPa Calm     22% 0.00in /  0mm WeatherDisplay:10.37 W/m2 CLR
15:10 73.8 °F /  23.2 °C 32.6 °F /  0.3 °C 29.85in /  1010.7hPa Calm     22% 0.00in /  0mm WeatherDisplay:10.37 W/m2 CLR
15:15 73.9 °F /  23.3 °C 31.5 °F /  -0.3 °C 29.85in /  1010.7hPa Calm     21% 0.00in /  0mm WeatherDisplay:10.37 W/m2 CLR
15:20 73.9 °F /  23.3 °C 32.6 °F /  0.3 °C 29.85in /  1010.7hPa Calm   1.0mph /  1.6km/h 22% 0.00in /  0mm WeatherDisplay:10.37 W/m2 CLR
15:25 74.0 °F /  23.3 °C 32.7 °F /  0.4 °C 29.85in /  1010.7hPa Calm     22% 0.00in /  0mm WeatherDisplay:10.37 W/m2 CLR
15:30 74.0 °F /  23.3 °C 32.7 °F /  0.4 °C 29.84in /  1010.4hPa Calm     22% 0.00in /  0mm WeatherDisplay:10.37 W/m2 CLR
15:35 74.0 °F /  23.3 °C 32.7 °F /  0.4 °C 29.84in /  1010.4hPa Calm   2.0mph /  3.2km/h 22% 0.00in /  0mm WeatherDisplay:10.37 W/m2 CLR
15:40 74.0 °F /  23.3 °C 32.7 °F /  0.4 °C 29.84in /  1010.4hPa Calm     22% 0.00in /  0mm WeatherDisplay:10.37 W/m2 CLR
15:45 74.0 °F /  23.3 °C 32.7 °F /  0.4 °C 29.84in /  1010.4hPa Calm     22% 0.00in /  0mm WeatherDisplay:10.37 W/m2 CLR
15:50 74.0 °F /  23.3 °C 32.7 °F /  0.4 °C 29.84in /  1010.4hPa Calm   1.0mph /  1.6km/h 22% 0.00in /  0mm WeatherDisplay:10.37 W/m2 CLR
15:55 74.0 °F /  23.3 °C 32.7 °F /  0.4 °C 29.84in /  1010.4hPa Calm     22% 0.00in /  0mm WeatherDisplay:10.37 W/m2 CLR
16:00 73.9 °F /  23.3 °C 31.5 °F /  -0.3 °C 29.83in /  1010hPa Calm     21% 0.00in /  0mm WeatherDisplay:10.37 W/m2 CLR
16:05 73.9 °F /  23.3 °C 32.6 °F /  0.3 °C 29.83in /  1010hPa Calm     22% 0.00in /  0mm WeatherDisplay:10.37 W/m2 CLR
16:10 73.8 °F /  23.2 °C 32.6 °F /  0.3 °C 29.83in /  1010hPa West 1.0mph /  1.6km/h 6.0mph /  9.7km/h 22% 0.00in /  0mm WeatherDisplay:10.37 W/m2 CLR
16:15 73.8 °F /  23.2 °C 32.6 °F /  0.3 °C 29.83in /  1010hPa Calm     22% 0.00in /  0mm WeatherDisplay:10.37 W/m2 CLR
16:20 73.7 °F /  23.2 °C 31.3 °F /  -0.4 °C 29.83in /  1010hPa Calm     21% 0.00in /  0mm WeatherDisplay:10.37 W/m2 CLR
16:25 73.8 °F /  23.2 °C 32.5 °F /  0.3 °C 29.83in /  1010hPa Calm     22% 0.00in /  0mm WeatherDisplay:10.37 W/m2 CLR
16:30 73.7 °F /  23.2 °C 32.5 °F /  0.3 °C 29.83in /  1010hPa Calm     22% 0.00in /  0mm WeatherDisplay:10.37 W/m2 CLR
16:35 73.6 °F /  23.1 °C 31.2 °F /  -0.4 °C 29.83in /  1010hPa Calm     21% 0.00in /  0mm WeatherDisplay:10.37 W/m2 CLR
16:40 73.6 °F /  23.1 °C 31.2 °F /  -0.4 °C 29.83in /  1010hPa Calm     21% 0.00in /  0mm WeatherDisplay:10.37 W/m2 CLR
16:45 73.5 °F /  23.1 °C 32.3 °F /  0.2 °C 29.82in /  1009.7hPa Calm     22% 0.00in /  0mm WeatherDisplay:10.37 W/m2 CLR
16:50 73.4 °F /  23 °C 32.2 °F /  0.1 °C 29.82in /  1009.7hPa Calm     22% 0.00in /  0mm WeatherDisplay:10.37 W/m2 CLR
16:55 73.3 °F /  22.9 °C 32.2 °F /  0.1 °C 29.82in /  1009.7hPa Calm     22% 0.00in /  0mm WeatherDisplay:10.37 W/m2 CLR
17:00 73.2 °F /  22.9 °C 32.1 °F /  0.1 °C 29.82in /  1009.7hPa Calm     22% 0.00in /  0mm WeatherDisplay:10.37 W/m2 CLR
17:05 73.1 °F /  22.8 °C 32.0 °F /  0 °C 29.82in /  1009.7hPa Calm     22% 0.00in /  0mm WeatherDisplay:10.37 W/m2 CLR
17:10 72.9 °F /  22.7 °C 31.8 °F /  -0.1 °C 29.82in /  1009.7hPa Calm     22% 0.00in /  0mm WeatherDisplay:10.37 W/m2 CLR
17:15 72.8 °F /  22.7 °C 31.7 °F /  -0.2 °C 29.81in /  1009.4hPa Calm     22% 0.00in /  0mm WeatherDisplay:10.37 W/m2 CLR
17:20 72.6 °F /  22.6 °C 31.5 °F /  -0.3 °C 29.81in /  1009.4hPa Calm     22% 0.00in /  0mm WeatherDisplay:10.37 W/m2 CLR
17:25 72.5 °F /  22.5 °C 32.5 °F /  0.3 °C 29.81in /  1009.4hPa Calm     23% 0.00in /  0mm WeatherDisplay:10.37 W/m2 CLR
17:30 72.3 °F /  22.4 °C 32.4 °F /  0.2 °C 29.81in /  1009.4hPa Calm     23% 0.00in /  0mm WeatherDisplay:10.37 W/m2 CLR
17:35 72.1 °F /  22.3 °C 33.3 °F /  0.7 °C 29.81in /  1009.4hPa Calm     24% 0.00in /  0mm WeatherDisplay:10.37 W/m2 CLR
17:40 71.8 °F /  22.1 °C 33.1 °F /  0.6 °C 29.81in /  1009.4hPa Calm     24% 0.00in /  0mm WeatherDisplay:10.37 W/m2 CLR
17:44 71.5 °F /  21.9 °C 33.8 °F /  1 °C 29.81in /  1009.4hPa Calm     25% 0.00in /  0mm WeatherDisplay:10.37 W/m2 CLR
17:50 71.3 °F /  21.8 °C 33.6 °F /  0.9 °C 29.81in /  1009.4hPa Calm     25% 0.00in /  0mm WeatherDisplay:10.37 W/m2 CLR
17:55 70.8 °F /  21.6 °C 33.2 °F /  0.7 °C 29.81in /  1009.4hPa Calm     25% 0.00in /  0mm WeatherDisplay:10.37 W/m2 CLR
18:00 70.5 °F /  21.4 °C 33.9 °F /  1.1 °C 29.80in /  1009hPa Calm     26% 0.00in /  0mm WeatherDisplay:10.37 W/m2 CLR
18:05 69.9 °F /  21.1 °C 34.4 °F /  1.3 °C 29.80in /  1009hPa Calm     27% 0.00in /  0mm WeatherDisplay:10.37 W/m2 CLR
18:10 69.5 °F /  20.8 °C 34.0 °F /  1.1 °C 29.80in /  1009hPa Calm     27% 0.00in /  0mm WeatherDisplay:10.37 W/m2 CLR
18:15 68.9 °F /  20.5 °C 34.4 °F /  1.3 °C 29.81in /  1009.4hPa Calm     28% 0.00in /  0mm WeatherDisplay:10.37 W/m2 CLR
18:20 68.4 °F /  20.2 °C 34.0 °F /  1.1 °C 29.81in /  1009.4hPa Calm     28% 0.00in /  0mm WeatherDisplay:10.37 W/m2 CLR
18:25 67.9 °F /  19.9 °C 33.6 °F /  0.9 °C 29.81in /  1009.4hPa Calm     28% 0.00in /  0mm WeatherDisplay:10.37 W/m2 CLR
18:30 67.4 °F /  19.7 °C 34.0 °F /  1.1 °C 29.81in /  1009.4hPa Calm     29% 0.00in /  0mm WeatherDisplay:10.37 W/m2 CLR
18:35 66.9 °F /  19.4 °C 34.5 °F /  1.4 °C 29.81in /  1009.4hPa Calm     30% 0.00in /  0mm WeatherDisplay:10.37 W/m2 CLR
18:40 66.5 °F /  19.2 °C 34.1 °F /  1.2 °C 29.81in /  1009.4hPa Calm     30% 0.00in /  0mm WeatherDisplay:10.37 W/m2 CLR
18:45 66.1 °F /  18.9 °C 33.7 °F /  0.9 °C 29.81in /  1009.4hPa Calm     30% 0.00in /  0mm WeatherDisplay:10.37 W/m2 CLR
18:50 65.6 °F /  18.7 °C 34.2 °F /  1.2 °C 29.81in /  1009.4hPa Calm     31% 0.00in /  0mm WeatherDisplay:10.37 W/m2 CLR
18:55 65.2 °F /  18.4 °C 33.8 °F /  1 °C 29.81in /  1009.4hPa Calm     31% 0.00in /  0mm WeatherDisplay:10.37 W/m2 CLR
19:00 64.7 °F /  18.2 °C 34.2 °F /  1.2 °C 29.82in /  1009.7hPa Calm     32% 0.00in /  0mm WeatherDisplay:10.37 W/m2 CLR
19:05 64.3 °F /  17.9 °C 33.8 °F /  1 °C 29.82in /  1009.7hPa Calm     32% 0.00in /  0mm WeatherDisplay:10.37 W/m2 CLR
19:10 63.9 °F /  17.7 °C 34.2 °F /  1.2 °C 29.82in /  1009.7hPa Calm     33% 0.00in /  0mm WeatherDisplay:10.37 W/m2 CLR
19:15 63.4 °F /  17.4 °C 34.6 °F /  1.4 °C 29.82in /  1009.7hPa Calm     34% 0.00in /  0mm WeatherDisplay:10.37 W/m2 CLR
19:20 63.0 °F /  17.2 °C 34.2 °F /  1.2 °C 29.82in /  1009.7hPa Calm     34% 0.00in /  0mm WeatherDisplay:10.37 W/m2 CLR
19:25 62.6 °F /  17 °C 34.5 °F /  1.4 °C 29.82in /  1009.7hPa Calm     35% 0.00in /  0mm WeatherDisplay:10.37 W/m2 CLR
19:30 62.2 °F /  16.8 °C 34.2 °F /  1.2 °C 29.82in /  1009.7hPa Calm     35% 0.00in /  0mm WeatherDisplay:10.37 W/m2 CLR
19:35 61.8 °F /  16.6 °C 33.8 °F /  1 °C 29.82in /  1009.7hPa Calm     35% 0.00in /  0mm WeatherDisplay:10.37 W/m2 CLR
19:39 61.4 °F /  16.3 °C 33.5 °F /  0.8 °C 29.82in /  1009.7hPa Calm     35% 0.00in /  0mm WeatherDisplay:10.37 W/m2 CLR
19:45 61.1 °F /  16.2 °C 33.9 °F /  1.1 °C 29.82in /  1009.7hPa Calm     36% 0.00in /  0mm WeatherDisplay:10.37 W/m2 CLR
19:50 60.7 °F /  15.9 °C 34.3 °F /  1.3 °C 29.82in /  1009.7hPa Calm     37% 0.00in /  0mm WeatherDisplay:10.37 W/m2 CLR
19:55 60.4 °F /  15.8 °C 34.0 °F /  1.1 °C 29.82in /  1009.7hPa Calm     37% 0.00in /  0mm WeatherDisplay:10.37 W/m2 CLR
20:00 60.0 °F /  15.6 °C 34.3 °F /  1.3 °C 29.82in /  1009.7hPa Calm     38% 0.00in /  0mm WeatherDisplay:10.37 W/m2 CLR
20:05 59.8 °F /  15.4 °C 33.4 °F /  0.8 °C 29.82in /  1009.7hPa Calm     37% 0.00in /  0mm WeatherDisplay:10.37 W/m2 CLR
20:10 59.5 °F /  15.3 °C 33.2 °F /  0.7 °C 29.82in /  1009.7hPa Calm     37% 0.00in /  0mm WeatherDisplay:10.37 W/m2 CLR
20:15 59.2 °F /  15.1 °C 33.5 °F /  0.8 °C 29.82in /  1009.7hPa Calm     38% 0.00in /  0mm WeatherDisplay:10.37 W/m2 CLR
20:20 59.0 °F /  15 °C 33.4 °F /  0.8 °C 29.82in /  1009.7hPa Calm     38% 0.00in /  0mm WeatherDisplay:10.37 W/m2 CLR
20:25 58.9 °F /  14.9 °C 34.0 °F /  1.1 °C 29.82in /  1009.7hPa Calm     39% 0.00in /  0mm WeatherDisplay:10.37 W/m2 CLR
20:30 58.6 °F /  14.8 °C 33.7 °F /  0.9 °C 29.82in /  1009.7hPa Calm     39% 0.00in /  0mm WeatherDisplay:10.37 W/m2 CLR
20:35 58.3 °F /  14.6 °C 33.4 °F /  0.8 °C 29.82in /  1009.7hPa Calm     39% 0.00in /  0mm WeatherDisplay:10.37 W/m2 CLR
20:40 58.1 °F /  14.5 °C 33.2 °F /  0.7 °C 29.82in /  1009.7hPa Calm     39% 0.00in /  0mm WeatherDisplay:10.37 W/m2 CLR
20:45 57.9 °F /  14.4 °C 33.1 °F /  0.6 °C 29.82in /  1009.7hPa Calm     39% 0.00in /  0mm WeatherDisplay:10.37 W/m2 CLR
20:50 57.7 °F /  14.3 °C 32.9 °F /  0.5 °C 29.82in /  1009.7hPa Calm     39% 0.00in /  0mm WeatherDisplay:10.37 W/m2 CLR
20:55 57.5 °F /  14.2 °C 32.7 °F /  0.4 °C 29.82in /  1009.7hPa Calm     39% 0.00in /  0mm WeatherDisplay:10.37 W/m2 CLR
21:00 57.3 °F /  14.1 °C 32.5 °F /  0.3 °C 29.82in /  1009.7hPa Calm     39% 0.00in /  0mm WeatherDisplay:10.37 W/m2 CLR
21:06 57.2 °F /  14 °C 32.4 °F /  0.2 °C 29.82in /  1009.7hPa Calm     39% 0.00in /  0mm WeatherDisplay:10.37 W/m2 CLR
21:11 57.0 °F /  13.9 °C 32.9 °F /  0.5 °C 29.81in /  1009.4hPa Calm     40% 0.00in /  0mm WeatherDisplay:10.37 W/m2 CLR
21:16 56.8 °F /  13.8 °C 32.7 °F /  0.4 °C 29.81in /  1009.4hPa Calm     40% 0.00in /  0mm WeatherDisplay:10.37 W/m2 CLR
21:21 56.6 °F /  13.7 °C 32.5 °F /  0.3 °C 29.81in /  1009.4hPa Calm     40% 0.00in /  0mm WeatherDisplay:10.37 W/m2 CLR
21:26 56.4 °F /  13.6 °C 32.4 °F /  0.2 °C 29.81in /  1009.4hPa Calm     40% 0.00in /  0mm WeatherDisplay:10.37 W/m2 CLR
21:31 56.3 °F /  13.5 °C 32.3 °F /  0.2 °C 29.81in /  1009.4hPa Calm     40% 0.00in /  0mm WeatherDisplay:10.37 W/m2 CLR
21:36 56.1 °F /  13.4 °C 32.1 °F /  0.1 °C 29.81in /  1009.4hPa Calm     40% 0.00in /  0mm WeatherDisplay:10.37 W/m2 CLR
21:41 56.0 °F /  13.3 °C 32.6 °F /  0.3 °C 29.81in /  1009.4hPa Calm     41% 0.00in /  0mm WeatherDisplay:10.37 W/m2 CLR
21:46 55.8 °F /  13.2 °C 32.4 °F /  0.2 °C 29.81in /  1009.4hPa Calm     41% 0.00in /  0mm WeatherDisplay:10.37 W/m2 CLR
21:51 55.7 °F /  13.2 °C 32.3 °F /  0.2 °C 29.81in /  1009.4hPa Calm     41% 0.00in /  0mm WeatherDisplay:10.37 W/m2 CLR
21:57 55.5 °F /  13.1 °C 32.8 °F /  0.4 °C 29.82in /  1009.7hPa Calm     42% 0.00in /  0mm WeatherDisplay:10.37 W/m2 CLR
22:02 55.3 °F /  12.9 °C 32.6 °F /  0.3 °C 29.82in /  1009.7hPa Calm     42% 0.00in /  0mm WeatherDisplay:10.37 W/m2 CLR
22:07 55.1 °F /  12.8 °C 33.0 °F /  0.6 °C 29.82in /  1009.7hPa Calm     43% 0.00in /  0mm WeatherDisplay:10.37 W/m2 CLR
22:12 54.9 °F /  12.7 °C 32.8 °F /  0.4 °C 29.81in /  1009.4hPa Calm     43% 0.00in /  0mm WeatherDisplay:10.37 W/m2 CLR
22:17 54.6 °F /  12.6 °C 32.5 °F /  0.3 °C 29.81in /  1009.4hPa Calm     43% 0.00in /  0mm WeatherDisplay:10.37 W/m2 CLR
22:22 54.4 °F /  12.4 °C 32.3 °F /  0.2 °C 29.81in /  1009.4hPa Calm     43% 0.00in /  0mm WeatherDisplay:10.37 W/m2 CLR
22:27 54.1 °F /  12.3 °C 32.6 °F /  0.3 °C 29.81in /  1009.4hPa Calm     44% 0.00in /  0mm WeatherDisplay:10.37 W/m2 CLR
22:32 53.9 °F /  12.2 °C 32.5 °F /  0.3 °C 29.81in /  1009.4hPa Calm     44% 0.00in /  0mm WeatherDisplay:10.37 W/m2 CLR
22:37 53.7 °F /  12.1 °C 32.3 °F /  0.2 °C 29.81in /  1009.4hPa Calm     44% 0.00in /  0mm WeatherDisplay:10.37 W/m2 CLR
22:42 53.4 °F /  11.9 °C 32.6 °F /  0.3 °C 29.81in /  1009.4hPa Calm     45% 0.00in /  0mm WeatherDisplay:10.37 W/m2 CLR
22:48 53.2 °F /  11.8 °C 32.4 °F /  0.2 °C 29.81in /  1009.4hPa Calm     45% 0.00in /  0mm WeatherDisplay:10.37 W/m2 CLR
22:53 53.0 °F /  11.7 °C 32.2 °F /  0.1 °C 29.81in /  1009.4hPa Calm     45% 0.00in /  0mm WeatherDisplay:10.37 W/m2 CLR
22:58 52.8 °F /  11.6 °C 32.0 °F /  0 °C 29.81in /  1009.4hPa Calm     45% 0.00in /  0mm WeatherDisplay:10.37 W/m2 CLR
23:03 52.6 °F /  11.4 °C 31.8 °F /  -0.1 °C 29.81in /  1009.4hPa Calm     45% 0.00in /  0mm WeatherDisplay:10.37 W/m2 CLR
23:08 52.4 °F /  11.3 °C 31.7 °F /  -0.2 °C 29.81in /  1009.4hPa Calm     45% 0.00in /  0mm WeatherDisplay:10.37 W/m2 CLR
23:13 52.2 °F /  11.2 °C 32.0 °F /  0 °C 29.80in /  1009hPa Calm     46% 0.00in /  0mm WeatherDisplay:10.37 W/m2 CLR
23:18 52.1 °F /  11.2 °C 31.9 °F /  -0.1 °C 29.80in /  1009hPa Calm     46% 0.00in /  0mm WeatherDisplay:10.37 W/m2 CLR
23:23 51.9 °F /  11.1 °C 31.7 °F /  -0.2 °C 29.80in /  1009hPa Calm     46% 0.00in /  0mm WeatherDisplay:10.37 W/m2 CLR
23:28 51.8 °F /  11 °C 32.2 °F /  0.1 °C 29.80in /  1009hPa Calm     47% 0.00in /  0mm WeatherDisplay:10.37 W/m2 CLR
23:33 51.6 °F /  10.9 °C 32.0 °F /  0 °C 29.80in /  1009hPa Calm     47% 0.00in /  0mm WeatherDisplay:10.37 W/m2 CLR
23:38 51.5 °F /  10.8 °C 31.9 °F /  -0.1 °C 29.80in /  1009hPa Calm     47% 0.00in /  0mm WeatherDisplay:10.37 W/m2 CLR
23:43 51.3 °F /  10.7 °C 32.3 °F /  0.2 °C 29.80in /  1009hPa Calm     48% 0.00in /  0mm WeatherDisplay:10.37 W/m2 CLR
23:48 51.2 °F /  10.7 °C 32.2 °F /  0.1 °C 29.80in /  1009hPa Calm     48% 0.00in /  0mm WeatherDisplay:10.37 W/m2 CLR
23:54 51.0 °F /  10.6 °C 32.0 °F /  0 °C 29.80in /  1009hPa Calm     48% 0.00in /  0mm WeatherDisplay:10.37 W/m2 CLR
Youngtown, Arizona, USA
Compliments of Weather Underground - 3.75 mb